createdAt,value
2017-06-19T19:15:05.059Z,39.36
2017-06-19T19:17:32.541Z,39.45
2017-06-19T19:20:01.161Z,38.61
2017-06-19T19:34:01.536Z,48.81
2017-06-19T19:36:29.477Z,48.78
2017-06-19T19:38:56.917Z,50.67
2017-06-19T19:41:24.666Z,51.56
2017-06-19T19:43:52.498Z,48.67
2017-06-19T19:46:20.263Z,46.55
2017-06-19T19:48:48.428Z,52.55
2017-06-19T19:51:16.075Z,54.32
2017-06-19T19:53:43.494Z,55.05
2017-06-19T19:56:10.955Z,51.90
2017-06-19T19:58:42.193Z,51.58
2017-06-19T20:01:10.070Z,53.47
2017-06-19T20:03:38.279Z,52.59
2017-06-19T20:06:05.712Z,50.67
2017-06-19T20:08:33.130Z,54.97
2017-06-19T20:11:00.561Z,50.90
2017-06-19T20:13:28.183Z,53.94
2017-06-19T20:15:56.171Z,54.22
2017-06-19T20:18:23.582Z,55.31
2017-06-19T20:20:51.043Z,54.42
2017-06-19T20:23:18.665Z,52.74
2017-06-19T20:25:46.071Z,51.66
2017-06-19T20:28:13.634Z,52.32
2017-06-19T20:30:41.496Z,50.64
2017-06-19T20:33:09.152Z,53.44
2017-06-19T20:35:37.174Z,52.27
2017-06-19T20:38:04.587Z,55.94
2017-06-19T20:40:32.377Z,56.32
2017-06-19T20:43:00.147Z,55.62
2017-06-19T20:45:27.610Z,56.10
2017-06-19T20:47:55.506Z,56.65
2017-06-19T20:50:24.350Z,57.14
2017-06-19T20:52:51.834Z,58.22
2017-06-19T20:55:21.770Z,57.36
2017-06-19T20:57:49.207Z,56.68
2017-06-19T21:00:16.626Z,56.24
2017-06-19T21:02:44.071Z,56.27
2017-06-19T21:05:11.504Z,56.04
2017-06-19T21:07:38.921Z,56.67
2017-06-19T21:10:06.681Z,56.34
2017-06-19T21:12:34.103Z,56.98
2017-06-19T21:15:01.530Z,56.79
2017-06-19T21:17:29.171Z,58.02
2017-06-19T21:19:56.589Z,59.20
2017-06-19T21:22:24.487Z,58.33
2017-06-19T21:24:51.930Z,59.00
